KCIU

Chippewa County International Airport

Sault Ste Marie, Michigan, USA
METAR KCIU 221956Z AUTO VRB05KT 10SM CLR 11/00 A2990 RMK AO2 SLP154 T01110000
Observed Flight Rules
Oct-22 @ 19:56 UTC (52 minutes ago) Visual Flight Rules
Wind Visibility Clouds
Variable at 5 knots 10 miles
  • Clear skies
Temperatures Readings
Current 11°C / 52°F
Dewpoint 0°C / 32°F
Humidity 47%
Altimeter 29.9" Hg
Pressure 1015.4 hPa
Elevation 244
METAR KCIU 221956Z AUTO VRB05KT 10SM CLR 11/00 A2990 RMK AO2 SLP154 T01110000
Observed Flight Rules
Oct-22 @ 19:56 UTC
(52 minutes ago)
VFR
Wind Visibility
Variable at 5 knots 10 miles
Clouds
  • Clear skies
Temperature Dewpoint
11°C / 52°F 0°C / 32°F
Humidity Altimeter Pressure
47% 29.9" Hg 1015.4 hPa